createdAt,value
2023-04-13T00:00:50.970Z,100.00
2023-04-13T00:03:21.111Z,100.00
2023-04-13T00:05:53.089Z,100.00
2023-04-13T00:08:23.573Z,100.00
2023-04-13T00:10:53.584Z,100.00
2023-04-13T00:13:22.113Z,100.00
2023-04-13T00:15:50.593Z,100.00
2023-04-13T00:18:20.853Z,100.00
2023-04-13T00:20:50.795Z,100.00
2023-04-13T00:23:19.375Z,100.00
2023-04-13T00:25:47.908Z,100.00
2023-04-13T00:28:18.382Z,100.00
2023-04-13T00:30:46.925Z,100.00
2023-04-13T00:33:15.956Z,100.00
2023-04-13T00:35:45.005Z,100.00
2023-04-13T00:38:14.939Z,100.00
2023-04-13T00:40:43.795Z,100.00
2023-04-13T00:43:12.321Z,100.00
2023-04-13T00:45:41.483Z,100.00
2023-04-13T00:48:11.662Z,100.00
2023-04-13T00:50:42.701Z,100.00
2023-04-13T00:53:13.761Z,100.00
2023-04-13T00:55:44.075Z,100.00
2023-04-13T00:58:13.752Z,100.00
2023-04-13T01:00:43.368Z,100.00
2023-04-13T01:03:13.051Z,100.00
2023-04-13T01:05:50.632Z,100.00
2023-04-13T01:08:37.232Z,100.00
2023-04-13T01:11:14.421Z,100.00
2023-04-13T01:13:47.859Z,100.00
2023-04-13T01:16:21.236Z,100.00
2023-04-13T01:18:54.034Z,100.00
2023-04-13T01:21:26.386Z,100.00
2023-04-13T01:24:07.141Z,100.00
2023-04-13T01:26:45.824Z,100.00
2023-04-13T01:29:17.285Z,100.00
2023-04-13T01:31:46.316Z,100.00
2023-04-13T01:34:15.047Z,100.00
2023-04-13T01:36:43.745Z,100.00
2023-04-13T01:39:20.410Z,100.00
2023-04-13T01:41:49.215Z,100.00
2023-04-13T01:44:19.514Z,100.00
2023-04-13T01:46:54.341Z,100.00
2023-04-13T01:49:24.196Z,100.00
2023-04-13T01:51:54.737Z,100.00
2023-04-13T01:54:27.332Z,100.00
2023-04-13T01:57:00.391Z,100.00
2023-04-13T01:59:30.638Z,100.00
2023-04-13T02:01:59.742Z,100.00
2023-04-13T02:04:28.300Z,100.00
2023-04-13T02:06:56.795Z,100.00
2023-04-13T02:09:25.329Z,100.00
2023-04-13T02:11:54.123Z,100.00
2023-04-13T02:14:22.731Z,100.00
2023-04-13T02:16:52.644Z,100.00
2023-04-13T02:19:21.847Z,100.00
2023-04-13T02:21:50.348Z,100.00
2023-04-13T02:24:18.838Z,100.00
2023-04-13T02:26:47.341Z,100.00
2023-04-13T02:29:16.361Z,100.00
2023-04-13T02:31:45.145Z,100.00
2023-04-13T02:34:15.001Z,100.00
2023-04-13T02:36:44.112Z,100.00
2023-04-13T02:39:13.390Z,100.00
2023-04-13T02:41:43.268Z,100.00
2023-04-13T02:44:12.034Z,100.00
2023-04-13T02:46:40.924Z,100.00
2023-04-13T02:49:09.601Z,100.00
2023-04-13T02:51:39.762Z,100.00
2023-04-13T02:54:12.036Z,100.00
2023-04-13T02:56:40.598Z,100.00
2023-04-13T02:59:09.146Z,100.00
2023-04-13T03:01:37.888Z,100.00
2023-04-13T03:04:08.216Z,100.00
2023-04-13T03:06:38.105Z,100.00
2023-04-13T03:09:06.582Z,100.00
2023-04-13T03:11:35.098Z,100.00
2023-04-13T03:14:03.588Z,100.00
2023-04-13T03:16:32.213Z,100.00
2023-04-13T03:19:00.728Z,100.00
2023-04-13T03:21:29.211Z,100.00
2023-04-13T03:23:59.585Z,100.00
2023-04-13T03:26:28.250Z,100.00
2023-04-13T03:28:56.723Z,100.00
2023-04-13T03:31:25.295Z,100.00
2023-04-13T03:33:53.790Z,100.00
2023-04-13T03:36:22.288Z,100.00
2023-04-13T03:38:50.751Z,100.00
2023-04-13T03:41:20.756Z,100.00
2023-04-13T03:43:49.273Z,100.00
2023-04-13T03:46:18.201Z,100.00
2023-04-13T03:48:46.875Z,100.00
2023-04-13T03:51:16.288Z,100.00
2023-04-13T03:53:44.768Z,100.00
2023-04-13T03:56:13.293Z,100.00
2023-04-13T03:58:43.205Z,100.00
2023-04-13T04:01:11.821Z,100.00
2023-04-13T04:03:40.360Z,100.00
2023-04-13T04:06:10.058Z,100.00
2023-04-13T04:08:38.621Z,100.00
2023-04-13T04:11:07.415Z,100.00
2023-04-13T04:13:35.908Z,100.00
2023-04-13T04:16:08.782Z,100.00
2023-04-13T04:18:37.370Z,100.00
2023-04-13T04:21:06.710Z,100.00
2023-04-13T04:23:37.839Z,100.00
2023-04-13T04:26:07.478Z,100.00
2023-04-13T04:28:38.748Z,100.00
2023-04-13T04:31:10.983Z,100.00
2023-04-13T04:33:39.640Z,100.00
2023-04-13T04:36:10.054Z,100.00
2023-04-13T04:38:38.575Z,100.00
2023-04-13T04:41:08.756Z,100.00
2023-04-13T04:43:37.659Z,100.00
2023-04-13T04:46:08.909Z,100.00
2023-04-13T04:48:39.132Z,100.00
2023-04-13T04:51:08.707Z,100.00
2023-04-13T04:53:37.169Z,100.00
2023-04-13T04:56:06.207Z,100.00
2023-04-13T04:58:34.675Z,100.00
2023-04-13T05:01:03.701Z,100.00
2023-04-13T05:03:32.357Z,100.00
2023-04-13T05:06:02.467Z,100.00
2023-04-13T05:08:30.982Z,100.00
2023-04-13T05:10:59.472Z,100.00
2023-04-13T05:13:28.008Z,100.00
2023-04-13T05:15:56.670Z,100.00
2023-04-13T05:18:25.831Z,100.00
2023-04-13T05:20:54.304Z,100.00
2023-04-13T05:23:24.262Z,100.00
2023-04-13T05:25:53.387Z,100.00
2023-04-13T05:28:22.541Z,100.00
2023-04-13T05:30:51.092Z,100.00
2023-04-13T05:33:20.722Z,100.00
2023-04-13T05:35:49.235Z,100.00
2023-04-13T05:38:17.761Z,100.00
2023-04-13T05:40:48.273Z,100.00
2023-04-13T05:43:17.081Z,100.00
2023-04-13T05:45:45.593Z,100.00
2023-04-13T05:48:14.756Z,100.00
2023-04-13T05:50:43.727Z,100.00
2023-04-13T05:53:12.763Z,100.00
2023-04-13T05:55:44.798Z,100.00
2023-04-13T05:58:16.042Z,100.00
2023-04-13T06:00:44.527Z,100.00
2023-04-13T06:03:13.270Z,100.00
2023-04-13T06:05:42.414Z,100.00
2023-04-13T06:08:11.949Z,100.00
2023-04-13T06:10:44.427Z,100.00
2023-04-13T06:13:13.554Z,100.00
2023-04-13T06:15:43.895Z,100.00
2023-04-13T06:18:12.438Z,100.00
2023-04-13T06:20:41.127Z,100.00
2023-04-13T06:23:09.641Z,100.00
2023-04-13T06:25:38.567Z,100.00
2023-04-13T06:28:07.456Z,100.00
2023-04-13T06:30:36.407Z,100.00
2023-04-13T06:33:06.360Z,100.00
2023-04-13T06:35:35.894Z,100.00
2023-04-13T06:38:04.530Z,100.00
2023-04-13T06:40:33.289Z,100.00
2023-04-13T06:43:01.851Z,100.00
2023-04-13T06:45:30.957Z,100.00
2023-04-13T06:48:00.452Z,100.00
2023-04-13T06:50:30.485Z,100.00
2023-04-13T06:53:00.517Z,100.00
2023-04-13T06:55:29.207Z,100.00
2023-04-13T06:57:57.713Z,100.00
2023-04-13T07:00:29.459Z,100.00
2023-04-13T07:02:59.564Z,100.00
2023-04-13T07:05:29.922Z,100.00
2023-04-13T07:07:58.474Z,100.00
2023-04-13T07:10:27.309Z,100.00
2023-04-13T07:12:55.963Z,100.00
2023-04-13T07:15:24.444Z,100.00
2023-04-13T07:17:53.084Z,100.00
2023-04-13T07:20:22.208Z,100.00
2023-04-13T07:22:52.224Z,100.00
2023-04-13T07:25:21.656Z,100.00
2023-04-13T07:27:50.854Z,100.00
2023-04-13T07:30:19.474Z,100.00
2023-04-13T07:32:48.178Z,100.00
2023-04-13T07:35:16.718Z,100.00
2023-04-13T07:37:46.644Z,100.00
2023-04-13T07:40:16.710Z,100.00
2023-04-13T07:42:47.296Z,100.00
2023-04-13T07:45:17.986Z,100.00
2023-04-13T07:47:46.523Z,100.00
2023-04-13T07:50:15.328Z,100.00
2023-04-13T07:52:43.970Z,100.00
2023-04-13T07:55:12.598Z,100.00
2023-04-13T07:57:42.447Z,100.00
2023-04-13T08:00:12.375Z,100.00
2023-04-13T08:02:41.459Z,100.00
2023-04-13T08:05:11.674Z,100.00
2023-04-13T08:07:40.297Z,100.00
2023-04-13T08:10:10.177Z,100.00
2023-04-13T08:12:38.687Z,100.00
2023-04-13T08:15:09.965Z,100.00
2023-04-13T08:17:39.263Z,100.00
2023-04-13T08:20:09.251Z,100.00
2023-04-13T08:22:37.809Z,100.00
2023-04-13T08:25:07.501Z,100.00
2023-04-13T08:27:36.004Z,100.00
2023-04-13T08:30:07.435Z,100.00
2023-04-13T08:32:37.378Z,100.00
2023-04-13T08:35:07.495Z,100.00
2023-04-13T08:37:36.062Z,100.00
2023-04-13T08:40:07.459Z,100.00
2023-04-13T08:42:36.651Z,100.00
2023-04-13T08:45:05.925Z,100.00
2023-04-13T08:47:35.894Z,100.00
2023-04-13T08:50:05.305Z,100.00
2023-04-13T08:52:35.336Z,100.00
2023-04-13T08:55:05.943Z,100.00
2023-04-13T08:57:35.235Z,100.00
2023-04-13T09:00:11.403Z,100.00
2023-04-13T09:02:56.106Z,100.00
2023-04-13T09:05:34.085Z,100.00
2023-04-13T09:08:04.899Z,100.00
2023-04-13T09:10:34.002Z,100.00
2023-04-13T09:13:03.216Z,100.00
2023-04-13T09:15:33.429Z,100.00
2023-04-13T09:18:10.925Z,100.00
2023-04-13T09:20:40.653Z,100.00
2023-04-13T09:23:16.450Z,100.00
2023-04-13T09:25:46.760Z,100.00
2023-04-13T09:28:19.383Z,100.00
2023-04-13T09:30:48.359Z,100.00
2023-04-13T09:33:18.766Z,100.00
2023-04-13T09:35:47.330Z,100.00
2023-04-13T09:38:17.489Z,100.00
2023-04-13T09:40:54.437Z,100.00
2023-04-13T09:43:23.069Z,100.00
2023-04-13T09:45:51.964Z,100.00
2023-04-13T09:48:23.164Z,100.00
2023-04-13T09:51:01.928Z,100.00
2023-04-13T09:53:42.518Z,100.00
2023-04-13T09:56:11.414Z,100.00
2023-04-13T09:58:45.554Z,100.00
2023-04-13T10:01:15.340Z,100.00
2023-04-13T10:03:45.879Z,100.00
2023-04-13T10:06:15.323Z,100.00
2023-04-13T10:08:46.342Z,100.00
2023-04-13T10:11:16.115Z,100.00
2023-04-13T10:13:50.660Z,100.00
2023-04-13T10:16:51.455Z,100.00
2023-04-13T10:19:24.099Z,100.00
2023-04-13T10:21:54.845Z,100.00
2023-04-13T10:24:25.507Z,100.00
2023-04-13T10:26:56.231Z,100.00
2023-04-13T10:29:32.788Z,100.00
2023-04-13T10:32:05.225Z,100.00
2023-04-13T10:34:36.631Z,100.00
2023-04-13T10:37:06.851Z,100.00
2023-04-13T10:39:37.713Z,100.00
2023-04-13T10:42:08.188Z,100.00
2023-04-13T10:44:44.203Z,100.00
2023-04-13T10:47:14.112Z,100.00
2023-04-13T10:49:46.107Z,100.00
2023-04-13T10:52:15.114Z,100.00
2023-04-13T10:54:45.080Z,100.00
2023-04-13T10:57:16.689Z,100.00
2023-04-13T10:59:57.973Z,100.00
2023-04-13T11:02:32.242Z,100.00
2023-04-13T11:05:03.311Z,100.00
2023-04-13T11:07:33.646Z,100.00
2023-04-13T11:10:03.267Z,100.00
2023-04-13T11:12:32.442Z,100.00
2023-04-13T11:15:01.492Z,100.00
2023-04-13T11:17:30.083Z,100.00
2023-04-13T11:19:59.294Z,100.00
2023-04-13T11:22:36.490Z,100.00
2023-04-13T11:25:10.207Z,100.00
2023-04-13T11:27:38.952Z,100.00
2023-04-13T11:30:11.224Z,100.00
2023-04-13T11:32:43.393Z,100.00
2023-04-13T11:35:14.851Z,100.00
2023-04-13T11:37:47.023Z,100.00
2023-04-13T11:40:20.269Z,100.00
2023-04-13T11:42:51.376Z,100.00
2023-04-13T11:45:21.883Z,100.00
2023-04-13T11:47:51.803Z,100.00
2023-04-13T11:50:21.605Z,100.00
2023-04-13T11:52:56.507Z,100.00
2023-04-13T11:55:26.261Z,100.00
2023-04-13T11:57:55.899Z,100.00
2023-04-13T12:00:26.733Z,100.00
2023-04-13T12:05:31.496Z,100.00
2023-04-13T12:08:04.241Z,88.66
2023-04-13T12:10:41.205Z,85.71
2023-04-13T12:13:21.058Z,84.66
2023-04-13T12:16:06.142Z,79.58
2023-04-13T12:18:47.046Z,78.84
2023-04-13T12:21:26.629Z,82.35
2023-04-13T12:23:59.096Z,77.17
2023-04-13T12:27:16.361Z,78.95
2023-04-13T12:29:23.856Z,78.68
2023-04-13T12:31:52.181Z,72.47
2023-04-13T12:34:21.022Z,74.59
2023-04-13T12:36:49.221Z,79.56
2023-04-13T12:39:19.332Z,81.51
2023-04-13T12:41:47.949Z,83.62
2023-04-13T12:44:16.170Z,83.43
2023-04-13T12:46:44.965Z,78.22
2023-04-13T12:49:13.209Z,71.38
2023-04-13T12:51:41.436Z,69.94
2023-04-13T12:54:13.262Z,76.21
2023-04-13T12:56:42.928Z,72.63
2023-04-13T12:59:11.159Z,76.25
2023-04-13T13:01:39.460Z,73.11
2023-04-13T13:04:07.910Z,72.38
2023-04-13T13:06:36.196Z,72.47
2023-04-13T13:09:05.698Z,70.99
2023-04-13T13:11:34.051Z,74.60
2023-04-13T13:14:03.645Z,75.09
2023-04-13T13:16:32.342Z,67.58
2023-04-13T13:19:00.848Z,73.35
2023-04-13T13:21:30.304Z,67.27
2023-04-13T13:23:58.510Z,64.98
2023-04-13T13:26:30.622Z,71.05
2023-04-13T13:29:09.657Z,69.04
2023-04-13T13:31:38.073Z,69.19
2023-04-13T13:34:06.342Z,66.41
2023-04-13T13:36:34.666Z,76.10
2023-04-13T13:39:02.873Z,65.77
2023-04-13T13:41:31.186Z,72.62
2023-04-13T13:43:59.407Z,73.42
2023-04-13T13:46:29.021Z,71.09
2023-04-13T13:48:57.349Z,67.90
2023-04-13T13:51:27.711Z,70.58
2023-04-13T13:53:56.278Z,62.18
2023-04-13T13:56:24.961Z,64.91
2023-04-13T13:58:53.326Z,70.20
2023-04-13T15:58:53.976Z,56.97
2023-04-13T16:01:22.265Z,57.25
2023-04-13T16:03:51.020Z,59.57
2023-04-13T16:06:19.965Z,68.75
2023-04-13T16:08:48.108Z,63.91
2023-04-13T16:11:16.335Z,56.47
2023-04-13T16:13:48.796Z,65.00
2023-04-13T16:16:20.960Z,64.36
2023-04-13T16:18:49.254Z,61.52
2023-04-13T16:21:19.923Z,66.91
2023-04-13T16:23:48.522Z,70.02
2023-04-13T16:26:16.718Z,57.77
2023-04-13T16:28:44.888Z,55.20
2023-04-13T16:31:13.201Z,70.12
2023-04-13T16:33:42.775Z,60.70
2023-04-13T16:36:11.586Z,69.81
2023-04-13T16:38:41.920Z,68.82
2023-04-13T16:41:11.205Z,60.28
2023-04-13T16:43:40.124Z,65.08
2023-04-13T16:46:17.549Z,62.92
2023-04-13T16:48:47.571Z,59.42
2023-04-13T16:51:16.310Z,59.21
2023-04-13T16:53:44.466Z,59.00
2023-04-13T16:56:14.171Z,57.49
2023-04-13T16:58:43.485Z,63.51
2023-04-13T17:01:11.734Z,54.77
2023-04-13T17:03:39.967Z,67.08
2023-04-13T17:06:10.986Z,68.00
2023-04-13T17:08:39.751Z,67.53
2023-04-13T17:11:08.923Z,67.19
2023-04-13T17:13:39.014Z,59.13
2023-04-13T17:16:09.560Z,62.44
2023-04-13T17:18:38.775Z,69.31
2023-04-13T17:21:10.559Z,63.68
2023-04-13T17:23:40.601Z,52.21
2023-04-13T17:26:09.099Z,68.19
2023-04-13T17:28:39.482Z,69.05
2023-04-13T17:31:09.261Z,50.35
2023-04-13T17:33:38.144Z,69.72
2023-04-13T17:36:06.865Z,53.26
2023-04-13T17:38:37.025Z,65.53
2023-04-13T17:41:06.980Z,58.57
2023-04-13T17:43:36.464Z,58.68
2023-04-13T17:46:05.097Z,66.16
2023-04-13T17:48:34.734Z,64.64
2023-04-13T17:51:05.059Z,58.96
2023-04-13T17:53:33.875Z,71.72
2023-04-13T17:56:03.651Z,68.16
2023-04-13T17:58:32.029Z,64.32
2023-04-13T18:01:08.111Z,68.41
2023-04-13T18:03:37.558Z,71.65
2023-04-13T18:06:07.141Z,63.77
2023-04-13T18:08:35.940Z,75.03
2023-04-13T18:11:06.144Z,73.45
2023-04-13T18:13:35.151Z,74.68
2023-04-13T18:16:05.313Z,74.45
2023-04-13T18:18:33.629Z,74.89
2023-04-13T18:21:02.214Z,75.12
2023-04-13T18:23:31.005Z,75.50
2023-04-13T18:26:00.143Z,73.95
2023-04-13T18:28:31.613Z,75.19
2023-04-13T18:31:01.765Z,76.22
2023-04-13T18:33:31.910Z,76.20
2023-04-13T18:36:00.930Z,75.36
2023-04-13T18:38:29.761Z,76.83
2023-04-13T18:40:58.338Z,76.56
2023-04-13T18:43:27.706Z,73.63
2023-04-13T18:45:57.959Z,77.71
2023-04-13T18:48:26.949Z,77.77
2023-04-13T18:50:55.337Z,77.93
2023-04-13T18:53:24.371Z,78.04
2023-04-13T18:55:53.604Z,76.16
2023-04-13T18:58:22.462Z,77.81
2023-04-13T19:00:51.665Z,78.18
2023-04-13T19:03:22.861Z,78.66
2023-04-13T19:05:52.125Z,78.69
2023-04-13T19:08:21.429Z,79.05
2023-04-13T19:10:51.400Z,77.54
2023-04-13T19:13:20.133Z,79.36
2023-04-13T19:15:49.016Z,79.41
2023-04-13T19:18:18.290Z,79.45
2023-04-13T19:20:50.453Z,79.58
2023-04-13T19:23:19.038Z,79.80
2023-04-13T19:25:47.424Z,79.84
2023-04-13T19:28:16.186Z,80.00
2023-04-13T19:30:45.170Z,79.93
2023-04-13T19:33:13.590Z,80.05
2023-04-13T19:35:42.325Z,80.03
2023-04-13T19:38:13.024Z,79.92
2023-04-13T19:40:42.006Z,80.25
2023-04-13T19:43:13.128Z,80.45
2023-04-13T19:45:42.594Z,80.64
2023-04-13T19:48:11.390Z,80.31
2023-04-13T19:50:39.861Z,80.01
2023-04-13T19:53:11.239Z,79.99
2023-04-13T19:55:39.582Z,80.13
2023-04-13T19:58:09.691Z,80.01
2023-04-13T20:00:40.017Z,80.28
2023-04-13T20:03:08.985Z,81.14
2023-04-13T20:05:38.379Z,80.99
2023-04-13T20:08:08.095Z,81.23
2023-04-13T20:10:38.518Z,80.74
2023-04-13T20:13:07.666Z,81.08
2023-04-13T20:15:36.060Z,80.46
2023-04-13T20:18:07.558Z,80.50
2023-04-13T20:20:40.525Z,80.37
2023-04-13T20:23:11.334Z,79.22
2023-04-13T20:25:41.326Z,77.86
2023-04-13T20:28:11.383Z,81.16
2023-04-13T20:30:41.283Z,80.35
2023-04-13T20:33:12.160Z,80.61
2023-04-13T20:35:40.780Z,80.40
2023-04-13T20:38:10.299Z,78.57
2023-04-13T20:40:41.907Z,79.53
2023-04-13T20:43:11.349Z,80.36
2023-04-13T20:45:40.312Z,80.40
2023-04-13T20:50:46.071Z,80.72
2023-04-13T20:53:16.773Z,80.76
2023-04-13T20:55:49.976Z,81.01
2023-04-13T20:58:18.853Z,81.17
2023-04-13T21:00:48.676Z,81.26
2023-04-13T21:03:20.819Z,81.21
2023-04-13T21:05:49.562Z,81.52
2023-04-13T21:08:18.030Z,81.37
2023-04-13T21:10:47.769Z,80.94
2023-04-13T21:13:16.892Z,81.25
2023-04-13T21:15:46.196Z,81.28
2023-04-13T21:18:15.461Z,81.13
2023-04-13T21:20:46.005Z,80.74
2023-04-13T21:23:15.607Z,80.16
2023-04-13T21:25:44.913Z,80.19
2023-04-13T21:28:14.954Z,71.61
2023-04-13T21:30:43.653Z,79.36
2023-04-13T21:33:12.008Z,79.10
2023-04-13T21:35:40.597Z,89.94
2023-04-13T21:38:09.622Z,91.23
2023-04-13T21:40:40.161Z,75.46
2023-04-13T21:43:09.642Z,84.85
2023-04-13T21:45:39.586Z,83.88
2023-04-13T21:48:10.117Z,85.23
2023-04-13T21:50:39.450Z,73.98
2023-04-13T21:53:07.906Z,76.00
2023-04-13T21:55:36.887Z,83.50
2023-04-13T21:58:06.786Z,76.59
2023-04-13T22:00:35.528Z,80.69
2023-04-13T22:03:05.972Z,79.63
2023-04-13T22:05:34.545Z,79.32
2023-04-13T22:08:04.555Z,80.38
2023-04-13T22:10:32.995Z,81.13
2023-04-13T22:13:01.743Z,79.87
2023-04-13T22:15:30.509Z,81.06
2023-04-13T22:17:59.036Z,80.26
2023-04-13T22:20:29.118Z,80.73
2023-04-13T22:22:57.688Z,81.48
2023-04-13T22:25:28.004Z,80.94
2023-04-13T22:27:56.618Z,82.01
2023-04-13T22:30:25.054Z,82.09
2023-04-13T22:32:53.999Z,81.69
2023-04-13T22:35:22.524Z,82.58
2023-04-13T22:37:52.941Z,82.41
2023-04-13T22:40:22.025Z,80.69
2023-04-13T22:42:51.458Z,79.82
2023-04-13T22:45:20.439Z,82.32
2023-04-13T22:47:54.056Z,82.92
2023-04-13T22:50:23.107Z,82.92
2023-04-13T22:52:53.417Z,83.42
2023-04-13T22:55:22.177Z,81.21
2023-04-13T22:57:50.686Z,82.43
2023-04-13T23:00:20.785Z,82.93
2023-04-13T23:02:50.542Z,82.71
2023-04-13T23:05:19.256Z,82.08
2023-04-13T23:07:47.436Z,82.88
2023-04-13T23:10:17.788Z,81.91
2023-04-13T23:12:46.313Z,81.06
2023-04-13T23:15:14.990Z,82.84
2023-04-13T23:17:43.178Z,83.18
2023-04-13T23:20:11.984Z,83.33
2023-04-13T23:22:40.438Z,83.24
2023-04-13T23:25:09.515Z,83.63
2023-04-13T23:27:39.058Z,83.75
2023-04-13T23:30:08.922Z,83.43
2023-04-13T23:32:37.238Z,83.80
2023-04-13T23:35:06.359Z,83.62
2023-04-13T23:37:34.599Z,83.81
2023-04-13T23:40:02.900Z,83.91
2023-04-13T23:42:31.073Z,83.68
2023-04-13T23:45:01.345Z,83.77
2023-04-13T23:47:29.625Z,84.05
2023-04-13T23:49:57.815Z,83.49
2023-04-13T23:52:25.984Z,83.32
2023-04-13T23:54:54.216Z,83.31
2023-04-13T23:57:22.543Z,83.71
2023-04-13T23:59:57.275Z,84.26
